sensor_id;sensor_type;location;lat;lon;timestamp;pressure;altitude;pressure_sealevel;temperature;humidity
6200;BME280;3133;43.214;27.906;2023-08-21T00:01:33;100558.16;;;24.46;100.00
6200;BME280;3133;43.214;27.906;2023-08-21T00:04:00;100541.66;;;24.24;100.00
6200;BME280;3133;43.214;27.906;2023-08-21T00:06:29;100547.88;;;23.92;100.00
6200;BME280;3133;43.214;27.906;2023-08-21T00:08:56;100585.31;;;24.06;100.00
6200;BME280;3133;43.214;27.906;2023-08-21T00:11:22;100575.91;;;23.66;100.00
6200;BME280;3133;43.214;27.906;2023-08-21T00:13:49;100578.31;;;23.88;100.00
6200;BME280;3133;43.214;27.906;2023-08-21T00:16:16;100550.84;;;23.70;100.00
6200;BME280;3133;43.214;27.906;2023-08-21T00:18:43;100570.91;;;23.93;100.00
6200;BME280;3133;43.214;27.906;2023-08-21T00:21:10;100567.16;;;23.80;100.00
6200;BME280;3133;43.214;27.906;2023-08-21T00:23:38;100574.53;;;23.92;100.00
6200;BME280;3133;43.214;27.906;2023-08-21T00:26:05;100577.78;;;23.81;100.00
6200;BME280;3133;43.214;27.906;2023-08-21T00:28:32;100572.00;;;23.89;100.00
6200;BME280;3133;43.214;27.906;2023-08-21T00:31:04;100582.66;;;23.89;100.00
6200;BME280;3133;43.214;27.906;2023-08-21T00:33:33;100567.94;;;23.66;100.00
6200;BME280;3133;43.214;27.906;2023-08-21T00:36:00;100570.03;;;23.77;100.00
6200;BME280;3133;43.214;27.906;2023-08-21T00:38:27;100579.75;;;23.93;100.00
6200;BME280;3133;43.214;27.906;2023-08-21T00:40:55;100570.66;;;23.97;100.00
6200;BME280;3133;43.214;27.906;2023-08-21T00:43:23;100587.59;;;24.13;100.00
6200;BME280;3133;43.214;27.906;2023-08-21T00:45:50;100579.88;;;24.24;100.00
6200;BME280;3133;43.214;27.906;2023-08-21T00:48:17;100551.41;;;23.92;100.00
6200;BME280;3133;43.214;27.906;2023-08-21T00:50:45;100580.41;;;24.14;100.00
6200;BME280;3133;43.214;27.906;2023-08-21T00:53:12;100584.13;;;24.27;100.00
6200;BME280;3133;43.214;27.906;2023-08-21T00:55:40;100585.19;;;24.24;100.00
6200;BME280;3133;43.214;27.906;2023-08-21T00:58:10;100582.25;;;24.29;100.00
6200;BME280;3133;43.214;27.906;2023-08-21T01:00:38;100579.69;;;24.27;100.00
6200;BME280;3133;43.214;27.906;2023-08-21T01:03:05;100580.63;;;24.26;100.00
6200;BME280;3133;43.214;27.906;2023-08-21T01:05:34;100572.19;;;24.18;100.00
6200;BME280;3133;43.214;27.906;2023-08-21T01:08:03;100574.19;;;23.98;100.00
6200;BME280;3133;43.214;27.906;2023-08-21T01:10:42;100590.94;;;24.17;100.00
6200;BME280;3133;43.214;27.906;2023-08-21T01:13:19;100560.78;;;23.99;100.00
6200;BME280;3133;43.214;27.906;2023-08-21T01:15:49;100574.91;;;23.84;100.00
6200;BME280;3133;43.214;27.906;2023-08-21T01:18:18;100551.94;;;23.66;100.00
6200;BME280;3133;43.214;27.906;2023-08-21T01:20:49;100574.91;;;23.84;100.00
6200;BME280;3133;43.214;27.906;2023-08-21T01:23:31;100548.34;;;23.50;100.00
6200;BME280;3133;43.214;27.906;2023-08-21T01:25:59;100552.66;;;23.52;100.00
6200;BME280;3133;43.214;27.906;2023-08-21T01:28:26;100580.59;;;23.78;100.00
6200;BME280;3133;43.214;27.906;2023-08-21T01:30:59;100571.63;;;23.63;100.00
6200;BME280;3133;43.214;27.906;2023-08-21T01:33:29;100589.28;;;23.64;100.00
6200;BME280;3133;43.214;27.906;2023-08-21T01:35:58;100567.69;;;23.71;100.00
6200;BME280;3133;43.214;27.906;2023-08-21T01:38:32;100580.06;;;23.72;100.00
6200;BME280;3133;43.214;27.906;2023-08-21T01:40:59;100590.94;;;23.67;100.00
6200;BME280;3133;43.214;27.906;2023-08-21T01:43:25;100576.94;;;23.63;100.00
6200;BME280;3133;43.214;27.906;2023-08-21T01:45:52;100558.28;;;23.63;100.00
6200;BME280;3133;43.214;27.906;2023-08-21T01:48:19;100553.91;;;23.62;100.00
6200;BME280;3133;43.214;27.906;2023-08-21T01:50:46;100587.34;;;23.68;100.00
6200;BME280;3133;43.214;27.906;2023-08-21T01:53:13;100573.84;;;23.71;100.00
6200;BME280;3133;43.214;27.906;2023-08-21T01:55:41;100569.94;;;23.78;100.00
6200;BME280;3133;43.214;27.906;2023-08-21T01:58:08;100562.31;;;23.88;100.00
6200;BME280;3133;43.214;27.906;2023-08-21T02:00:34;100574.31;;;23.79;100.00
6200;BME280;3133;43.214;27.906;2023-08-21T02:03:01;100576.47;;;23.73;100.00
6200;BME280;3133;43.214;27.906;2023-08-21T02:05:28;100570.63;;;23.82;100.00
6200;BME280;3133;43.214;27.906;2023-08-21T02:07:56;100566.69;;;23.89;100.00
6200;BME280;3133;43.214;27.906;2023-08-21T02:10:23;100575.41;;;23.92;100.00
6200;BME280;3133;43.214;27.906;2023-08-21T02:12:52;100579.84;;;23.92;100.00
6200;BME280;3133;43.214;27.906;2023-08-21T02:15:19;100571.53;;;23.98;100.00
6200;BME280;3133;43.214;27.906;2023-08-21T02:17:47;100570.84;;;23.94;100.00
6200;BME280;3133;43.214;27.906;2023-08-21T02:20:14;100577.47;;;24.03;100.00
6200;BME280;3133;43.214;27.906;2023-08-21T02:22:41;100564.16;;;24.03;100.00
6200;BME280;3133;43.214;27.906;2023-08-21T02:25:08;100541.25;;;23.83;100.00
6200;BME280;3133;43.214;27.906;2023-08-21T02:27:37;100570.41;;;24.02;100.00
6200;BME280;3133;43.214;27.906;2023-08-21T02:30:06;100575.28;;;24.11;100.00
6200;BME280;3133;43.214;27.906;2023-08-21T02:32:33;100581.22;;;24.16;100.00
6200;BME280;3133;43.214;27.906;2023-08-21T02:35:00;100573.84;;;24.04;100.00
6200;BME280;3133;43.214;27.906;2023-08-21T02:37:26;100571.53;;;23.98;100.00
6200;BME280;3133;43.214;27.906;2023-08-21T02:39:53;100571.91;;;23.90;100.00
6200;BME280;3133;43.214;27.906;2023-08-21T02:42:20;100576.75;;;23.84;100.00
6200;BME280;3133;43.214;27.906;2023-08-21T02:44:47;100576.47;;;23.73;100.00
6200;BME280;3133;43.214;27.906;2023-08-21T02:47:15;100582.88;;;23.69;100.00
6200;BME280;3133;43.214;27.906;2023-08-21T02:49:42;100582.88;;;23.69;100.00
6200;BME280;3133;43.214;27.906;2023-08-21T02:52:09;100582.88;;;23.69;100.00
6200;BME280;3133;43.214;27.906;2023-08-21T02:54:35;100549.09;;;23.36;100.00
6200;BME280;3133;43.214;27.906;2023-08-21T02:57:02;100459.00;;;22.77;100.00
6200;BME280;3133;43.214;27.906;2023-08-21T02:59:29;100579.38;;;23.51;100.00
6200;BME280;3133;43.214;27.906;2023-08-21T03:01:56;100578.06;;;23.42;100.00
6200;BME280;3133;43.214;27.906;2023-08-21T03:04:24;100584.63;;;23.52;100.00
6200;BME280;3133;43.214;27.906;2023-08-21T03:06:51;100589.16;;;23.50;100.00
6200;BME280;3133;43.214;27.906;2023-08-21T03:09:18;100590.03;;;23.51;100.00
6200;BME280;3133;43.214;27.906;2023-08-21T03:11:44;100577.44;;;23.37;100.00
6200;BME280;3133;43.214;27.906;2023-08-21T03:14:11;100588.00;;;23.39;100.00
6200;BME280;3133;43.214;27.906;2023-08-21T03:16:38;100591.06;;;23.48;100.00
6200;BME280;3133;43.214;27.906;2023-08-21T03:19:06;100594.16;;;23.56;100.00
6200;BME280;3133;43.214;27.906;2023-08-21T03:21:34;100603.50;;;23.48;100.00
6200;BME280;3133;43.214;27.906;2023-08-21T03:24:01;100606.03;;;23.34;100.00
6200;BME280;3133;43.214;27.906;2023-08-21T03:26:27;100590.06;;;23.32;100.00
6200;BME280;3133;43.214;27.906;2023-08-21T03:28:54;100600.16;;;23.44;100.00
6200;BME280;3133;43.214;27.906;2023-08-21T03:31:21;100596.81;;;23.22;100.00
6200;BME280;3133;43.214;27.906;2023-08-21T03:33:48;100604.25;;;23.16;100.00
6200;BME280;3133;43.214;27.906;2023-08-21T03:36:15;100616.53;;;23.01;100.00
6200;BME280;3133;43.214;27.906;2023-08-21T03:38:43;100607.00;;;23.14;100.00
6200;BME280;3133;43.214;27.906;2023-08-21T03:41:10;100610.22;;;23.21;100.00
6200;BME280;3133;43.214;27.906;2023-08-21T03:43:37;100607.66;;;23.36;100.00
6200;BME280;3133;43.214;27.906;2023-08-21T03:46:04;100590.34;;;23.28;100.00
6200;BME280;3133;43.214;27.906;2023-08-21T03:48:31;100616.78;;;23.31;100.00
6200;BME280;3133;43.214;27.906;2023-08-21T03:50:58;100606.34;;;23.45;100.00
6200;BME280;3133;43.214;27.906;2023-08-21T03:53:24;100615.38;;;23.58;100.00
6200;BME280;3133;43.214;27.906;2023-08-21T03:55:53;100618.44;;;23.68;100.00
6200;BME280;3133;43.214;27.906;2023-08-21T03:58:19;100588.28;;;23.67;100.00
6200;BME280;3133;43.214;27.906;2023-08-21T04:00:47;100590.03;;;23.51;100.00
6200;BME280;3133;43.214;27.906;2023-08-21T04:03:13;100605.91;;;23.70;100.00
6200;BME280;3133;43.214;27.906;2023-08-21T04:05:40;100621.50;;;23.77;100.00
6200;BME280;3133;43.214;27.906;2023-08-21T04:08:07;100622.63;;;23.89;100.00
6200;BME280;3133;43.214;27.906;2023-08-21T04:10:34;100586.38;;;23.69;100.00
6200;BME280;3133;43.214;27.906;2023-08-21T04:13:02;100621.03;;;24.02;100.00
6200;BME280;3133;43.214;27.906;2023-08-21T04:15:29;100623.94;;;24.14;100.00
6200;BME280;3133;43.214;27.906;2023-08-21T04:17:56;100616.31;;;24.24;100.00
6200;BME280;3133;43.214;27.906;2023-08-21T04:20:23;100599.34;;;24.25;100.00
6200;BME280;3133;43.214;27.906;2023-08-21T04:22:51;100628.38;;;24.47;100.00
6200;BME280;3133;43.214;27.906;2023-08-21T04:25:20;100575.38;;;24.25;100.00
6200;BME280;3133;43.214;27.906;2023-08-21T04:27:47;100618.06;;;24.41;100.00
6200;BME280;3133;43.214;27.906;2023-08-21T04:30:15;100625.91;;;24.44;100.00
6200;BME280;3133;43.214;27.906;2023-08-21T04:32:42;100575.47;;;24.23;100.00
6200;BME280;3133;43.214;27.906;2023-08-21T04:35:09;100627.00;;;24.71;100.00
6200;BME280;3133;43.214;27.906;2023-08-21T04:37:38;100590.38;;;24.59;100.00
6200;BME280;3133;43.214;27.906;2023-08-21T04:40:10;100628.94;;;24.84;100.00
6200;BME280;3133;43.214;27.906;2023-08-21T04:42:38;100603.53;;;24.77;100.00
6200;BME280;3133;43.214;27.906;2023-08-21T04:45:06;100629.16;;;24.95;100.00
6200;BME280;3133;43.214;27.906;2023-08-21T04:47:34;100628.22;;;25.12;100.00
6200;BME280;3133;43.214;27.906;2023-08-21T04:50:01;100610.03;;;25.19;100.00
6200;BME280;3133;43.214;27.906;2023-08-21T04:52:28;100618.84;;;25.35;100.00
6200;BME280;3133;43.214;27.906;2023-08-21T04:54:55;100628.06;;;25.45;100.00
6200;BME280;3133;43.214;27.906;2023-08-21T04:57:22;100634.75;;;25.52;100.00
6200;BME280;3133;43.214;27.906;2023-08-21T04:59:49;100623.25;;;25.65;100.00
6200;BME280;3133;43.214;27.906;2023-08-21T05:02:16;100602.72;;;25.66;100.00
6200;BME280;3133;43.214;27.906;2023-08-21T05:04:44;100609.06;;;25.79;100.00
6200;BME280;3133;43.214;27.906;2023-08-21T05:07:11;100621.94;;;26.01;100.00
6200;BME280;3133;43.214;27.906;2023-08-21T05:09:38;100565.69;;;25.74;100.00
6200;BME280;3133;43.214;27.906;2023-08-21T05:12:06;100627.81;;;26.21;100.00
6200;BME280;3133;43.214;27.906;2023-08-21T05:14:33;100629.69;;;26.33;100.00
6200;BME280;3133;43.214;27.906;2023-08-21T05:17:00;100606.78;;;26.29;100.00
6200;BME280;3133;43.214;27.906;2023-08-21T05:19:27;100635.44;;;26.27;100.00
6200;BME280;3133;43.214;27.906;2023-08-21T05:21:55;100642.31;;;26.45;100.00
6200;BME280;3133;43.214;27.906;2023-08-21T05:24:22;100641.91;;;26.51;100.00
6200;BME280;3133;43.214;27.906;2023-08-21T05:26:49;100628.19;;;26.43;100.00
6200;BME280;3133;43.214;27.906;2023-08-21T05:29:16;100641.88;;;26.66;100.00
6200;BME280;3133;43.214;27.906;2023-08-21T05:31:42;100634.81;;;26.79;100.00
6200;BME280;3133;43.214;27.906;2023-08-21T05:34:09;100597.53;;;26.61;100.00
6200;BME280;3133;43.214;27.906;2023-08-21T05:36:36;100643.56;;;26.95;100.00
6200;BME280;3133;43.214;27.906;2023-08-21T05:39:05;100600.03;;;26.65;100.00
6200;BME280;3133;43.214;27.906;2023-08-21T05:41:32;100644.66;;;27.05;100.00
6200;BME280;3133;43.214;27.906;2023-08-21T05:43:59;100643.91;;;27.03;100.00
6200;BME280;3133;43.214;27.906;2023-08-21T05:46:26;100649.88;;;27.20;100.00
6200;BME280;3133;43.214;27.906;2023-08-21T05:48:54;100652.16;;;27.26;100.00
6200;BME280;3133;43.214;27.906;2023-08-21T05:51:21;100652.31;;;27.38;100.00
6200;BME280;3133;43.214;27.906;2023-08-21T05:53:47;100647.63;;;27.54;100.00
6200;BME280;3133;43.214;27.906;2023-08-21T05:56:16;100647.94;;;27.62;100.00
6200;BME280;3133;43.214;27.906;2023-08-21T05:58:42;100648.19;;;27.71;100.00
6200;BME280;3133;43.214;27.906;2023-08-21T06:01:09;100628.69;;;27.69;100.00
6200;BME280;3133;43.214;27.906;2023-08-21T06:03:36;100653.38;;;27.87;100.00
6200;BME280;3133;43.214;27.906;2023-08-21T06:06:03;100652.03;;;28.06;100.00
6200;BME280;3133;43.214;27.906;2023-08-21T06:08:30;100656.50;;;28.19;100.00
6200;BME280;3133;43.214;27.906;2023-08-21T06:10:57;100656.91;;;28.38;100.00
6200;BME280;3133;43.214;27.906;2023-08-21T06:13:25;100668.63;;;28.62;100.00
6200;BME280;3133;43.214;27.906;2023-08-21T06:15:52;100682.41;;;28.81;100.00
6200;BME280;3133;43.214;27.906;2023-08-21T06:18:19;100654.56;;;28.82;100.00
6200;BME280;3133;43.214;27.906;2023-08-21T06:20:46;100671.03;;;29.14;100.00
6200;BME280;3133;43.214;27.906;2023-08-21T06:23:13;100673.34;;;29.31;100.00
6200;BME280;3133;43.214;27.906;2023-08-21T06:25:41;100668.97;;;29.41;100.00
6200;BME280;3133;43.214;27.906;2023-08-21T06:28:09;100655.59;;;29.28;100.00
6200;BME280;3133;43.214;27.906;2023-08-21T06:30:37;100651.41;;;29.48;100.00
6200;BME280;3133;43.214;27.906;2023-08-21T06:33:04;100680.19;;;29.35;100.00
6200;BME280;3133;43.214;27.906;2023-08-21T06:35:31;100690.19;;;29.56;100.00
6200;BME280;3133;43.214;27.906;2023-08-21T06:37:58;100686.44;;;29.70;100.00
6200;BME280;3133;43.214;27.906;2023-08-21T06:40:25;100692.38;;;29.86;100.00
6200;BME280;3133;43.214;27.906;2023-08-21T06:42:51;100687.00;;;30.32;100.00
6200;BME280;3133;43.214;27.906;2023-08-21T06:45:18;100690.38;;;31.12;100.00
6200;BME280;3133;43.214;27.906;2023-08-21T06:47:47;100686.38;;;31.69;100.00
6200;BME280;3133;43.214;27.906;2023-08-21T06:50:16;100668.06;;;31.94;100.00
6200;BME280;3133;43.214;27.906;2023-08-21T06:52:42;100683.09;;;32.58;100.00
6200;BME280;3133;43.214;27.906;2023-08-21T06:55:10;100694.28;;;33.43;100.00
6200;BME280;3133;43.214;27.906;2023-08-21T06:57:37;100703.56;;;33.69;100.00
6200;BME280;3133;43.214;27.906;2023-08-21T07:00:05;100691.44;;;33.73;100.00
6200;BME280;3133;43.214;27.906;2023-08-21T07:02:32;100694.88;;;33.84;100.00
6200;BME280;3133;43.214;27.906;2023-08-21T07:05:01;100673.47;;;34.01;99.37
6200;BME280;3133;43.214;27.906;2023-08-21T07:07:28;100705.72;;;34.50;97.88
6200;BME280;3133;43.214;27.906;2023-08-21T07:09:55;100706.66;;;34.68;89.04
6200;BME280;3133;43.214;27.906;2023-08-21T07:12:22;100675.31;;;35.10;100.00
6200;BME280;3133;43.214;27.906;2023-08-21T07:14:48;100695.31;;;35.27;92.73
6200;BME280;3133;43.214;27.906;2023-08-21T07:17:15;100663.69;;;35.00;82.14
6200;BME280;3133;43.214;27.906;2023-08-21T07:19:42;100695.69;;;35.14;95.82
6200;BME280;3133;43.214;27.906;2023-08-21T07:22:10;100699.66;;;35.02;98.76
6200;BME280;3133;43.214;27.906;2023-08-21T07:24:37;100697.09;;;35.18;90.99
6200;BME280;3133;43.214;27.906;2023-08-21T07:27:04;100698.50;;;35.22;84.02
6200;BME280;3133;43.214;27.906;2023-08-21T07:29:31;100694.66;;;35.42;80.86
6200;BME280;3133;43.214;27.906;2023-08-21T07:31:57;100690.16;;;35.69;97.03
6200;BME280;3133;43.214;27.906;2023-08-21T07:34:24;100693.34;;;35.82;88.35
6200;BME280;3133;43.214;27.906;2023-08-21T07:36:51;100698.03;;;35.97;90.23
6200;BME280;3133;43.214;27.906;2023-08-21T07:39:19;100698.75;;;35.99;88.85
6200;BME280;3133;43.214;27.906;2023-08-21T07:41:46;100689.13;;;36.05;79.31
6200;BME280;3133;43.214;27.906;2023-08-21T07:44:13;100672.78;;;35.97;88.17
6200;BME280;3133;43.214;27.906;2023-08-21T07:46:40;100699.03;;;36.14;82.21
6200;BME280;3133;43.214;27.906;2023-08-21T07:49:06;100676.19;;;35.99;77.47
6200;BME280;3133;43.214;27.906;2023-08-21T07:51:33;100676.78;;;35.93;77.66
6200;BME280;3133;43.214;27.906;2023-08-21T07:54:00;100695.56;;;36.04;75.76
6200;BME280;3133;43.214;27.906;2023-08-21T07:56:28;100689.50;;;35.92;76.58
6200;BME280;3133;43.214;27.906;2023-08-21T07:58:55;100689.41;;;36.02;73.69
6200;BME280;3133;43.214;27.906;2023-08-21T08:01:22;100674.56;;;35.71;68.70
6200;BME280;3133;43.214;27.906;2023-08-21T08:03:49;100692.88;;;35.69;74.37
6200;BME280;3133;43.214;27.906;2023-08-21T08:06:16;100698.78;;;35.64;73.00
6200;BME280;3133;43.214;27.906;2023-08-21T08:08:43;100694.25;;;35.37;74.38
6200;BME280;3133;43.214;27.906;2023-08-21T08:11:11;100690.94;;;35.43;77.12
6200;BME280;3133;43.214;27.906;2023-08-21T08:13:39;100687.19;;;35.44;82.14
6200;BME280;3133;43.214;27.906;2023-08-21T08:16:06;100688.38;;;35.60;81.52
6200;BME280;3133;43.214;27.906;2023-08-21T08:18:33;100689.59;;;35.65;78.54
6200;BME280;3133;43.214;27.906;2023-08-21T08:21:00;100681.47;;;35.65;77.45
6200;BME280;3133;43.214;27.906;2023-08-21T08:23:27;100681.78;;;35.62;78.56
6200;BME280;3133;43.214;27.906;2023-08-21T08:25:54;100655.53;;;35.18;74.97
6200;BME280;3133;43.214;27.906;2023-08-21T08:28:21;100675.25;;;35.02;74.15
6200;BME280;3133;43.214;27.906;2023-08-21T08:30:52;100683.28;;;35.12;79.23
6200;BME280;3133;43.214;27.906;2023-08-21T08:33:19;100677.66;;;35.23;79.62
6200;BME280;3133;43.214;27.906;2023-08-21T08:35:46;100614.13;;;34.98;75.49
6200;BME280;3133;43.214;27.906;2023-08-21T08:38:14;100666.41;;;35.35;73.02
6200;BME280;3133;43.214;27.906;2023-08-21T08:40:45;100658.81;;;35.57;73.77
6200;BME280;3133;43.214;27.906;2023-08-21T08:43:12;100670.56;;;35.83;73.59
6200;BME280;3133;43.214;27.906;2023-08-21T08:45:41;100669.38;;;35.95;69.93
6200;BME280;3133;43.214;27.906;2023-08-21T08:48:12;100682.72;;;36.14;68.17
6200;BME280;3133;43.214;27.906;2023-08-21T08:50:45;100607.47;;;35.89;65.89
6200;BME280;3133;43.214;27.906;2023-08-21T08:53:14;100650.84;;;36.24;68.80
6200;BME280;3133;43.214;27.906;2023-08-21T08:55:42;100652.97;;;36.12;62.52
6200;BME280;3133;43.214;27.906;2023-08-21T08:58:08;100664.88;;;36.11;55.73
6200;BME280;3133;43.214;27.906;2023-08-21T09:00:35;100661.47;;;36.09;55.91
6200;BME280;3133;43.214;27.906;2023-08-21T09:03:04;100661.69;;;36.16;55.10
6200;BME280;3133;43.214;27.906;2023-08-21T09:05:34;100654.19;;;36.10;52.91
6200;BME280;3133;43.214;27.906;2023-08-21T09:08:03;100642.19;;;35.95;50.78
6200;BME280;3133;43.214;27.906;2023-08-21T09:10:31;100587.72;;;35.79;50.05
6200;BME280;3133;43.214;27.906;2023-08-21T09:12:58;100615.94;;;35.86;48.48
6200;BME280;3133;43.214;27.906;2023-08-21T09:15:30;100642.06;;;36.04;50.71
6200;BME280;3133;43.214;27.906;2023-08-21T09:17:57;100639.59;;;35.93;50.52
6200;BME280;3133;43.214;27.906;2023-08-21T09:20:24;100651.22;;;35.78;51.26
6200;BME280;3133;43.214;27.906;2023-08-21T09:22:55;100646.56;;;35.70;53.79
6200;BME280;3133;43.214;27.906;2023-08-21T09:25:23;100641.97;;;35.71;54.62
6200;BME280;3133;43.214;27.906;2023-08-21T09:27:52;100582.22;;;35.27;54.54
6200;BME280;3133;43.214;27.906;2023-08-21T09:30:19;100632.00;;;35.54;55.55
6200;BME280;3133;43.214;27.906;2023-08-21T09:32:54;100613.31;;;35.51;56.43
6200;BME280;3133;43.214;27.906;2023-08-21T09:35:22;100636.22;;;35.74;59.39
6200;BME280;3133;43.214;27.906;2023-08-21T09:37:49;100627.94;;;35.75;59.57
6200;BME280;3133;43.214;27.906;2023-08-21T09:40:20;100630.72;;;35.66;58.34
6200;BME280;3133;43.214;27.906;2023-08-21T09:42:51;100636.56;;;35.71;59.91
6200;BME280;3133;43.214;27.906;2023-08-21T09:45:20;100621.50;;;35.59;54.83
6200;BME280;3133;43.214;27.906;2023-08-21T09:47:48;100639.50;;;35.24;54.55
6200;BME280;3133;43.214;27.906;2023-08-21T09:50:15;100597.28;;;34.95;51.71
6200;BME280;3133;43.214;27.906;2023-08-21T09:52:45;100603.28;;;35.16;52.55
6200;BME280;3133;43.214;27.906;2023-08-21T09:55:13;100624.78;;;35.62;52.83
6200;BME280;3133;43.214;27.906;2023-08-21T09:57:42;100607.47;;;35.63;50.75
6200;BME280;3133;43.214;27.906;2023-08-21T10:00:09;100628.63;;;35.77;52.79
6200;BME280;3133;43.214;27.906;2023-08-21T10:02:42;100625.78;;;35.87;51.63
6200;BME280;3133;43.214;27.906;2023-08-21T10:05:12;100607.81;;;35.86;51.93
6200;BME280;3133;43.214;27.906;2023-08-21T10:07:41;100561.63;;;35.60;52.60
6200;BME280;3133;43.214;27.906;2023-08-21T10:10:09;100516.59;;;35.32;51.22
6200;BME280;3133;43.214;27.906;2023-08-21T10:12:37;100619.44;;;35.96;50.14
6200;BME280;3133;43.214;27.906;2023-08-21T10:15:07;100607.72;;;35.95;48.99
6200;BME280;3133;43.214;27.906;2023-08-21T10:17:35;100616.81;;;35.86;48.88
6200;BME280;3133;43.214;27.906;2023-08-21T10:20:03;100603.97;;;35.71;50.52
6200;BME280;3133;43.214;27.906;2023-08-21T10:22:39;100609.88;;;35.66;49.50
6200;BME280;3133;43.214;27.906;2023-08-21T10:25:15;100559.22;;;35.39;51.00
6200;BME280;3133;43.214;27.906;2023-08-21T10:27:45;100614.59;;;35.64;51.55
6200;BME280;3133;43.214;27.906;2023-08-21T10:30:16;100574.44;;;35.50;50.80
6200;BME280;3133;43.214;27.906;2023-08-21T10:32:47;100616.50;;;35.72;47.94
6200;BME280;3133;43.214;27.906;2023-08-21T10:35:15;100616.72;;;35.53;47.91
6200;BME280;3133;43.214;27.906;2023-08-21T10:38:10;100610.19;;;35.45;49.42
6200;BME280;3133;43.214;27.906;2023-08-21T10:40:38;100496.41;;;34.73;48.32
6200;BME280;3133;43.214;27.906;2023-08-21T10:43:38;100588.09;;;35.40;46.64
6200;BME280;3133;43.214;27.906;2023-08-21T10:46:06;100622.38;;;35.59;47.14
6200;BME280;3133;43.214;27.906;2023-08-21T10:48:34;100609.16;;;35.46;46.99
6200;BME280;3133;43.214;27.906;2023-08-21T10:51:02;100567.66;;;35.11;47.37
6200;BME280;3133;43.214;27.906;2023-08-21T10:53:30;100591.97;;;35.20;46.19
6200;BME280;3133;43.214;27.906;2023-08-21T10:56:01;100545.22;;;34.73;46.65
6200;BME280;3133;43.214;27.906;2023-08-21T10:58:29;100589.31;;;34.93;46.80
6200;BME280;3133;43.214;27.906;2023-08-21T11:01:00;100612.28;;;35.16;50.10
6200;BME280;3133;43.214;27.906;2023-08-21T11:03:29;100609.50;;;35.08;49.39
6200;BME280;3133;43.214;27.906;2023-08-21T11:06:01;100610.97;;;35.20;51.11
6200;BME280;3133;43.214;27.906;2023-08-21T11:08:28;100606.94;;;35.24;79.25
6200;BME280;3133;43.214;27.906;2023-08-21T11:10:55;100610.03;;;35.12;100.00
6200;BME280;3133;43.214;27.906;2023-08-21T11:13:23;100610.25;;;35.01;100.00
6200;BME280;3133;43.214;27.906;2023-08-21T11:15:57;100583.63;;;34.69;100.00
6200;BME280;3133;43.214;27.906;2023-08-21T11:18:31;100604.00;;;34.73;100.00
6200;BME280;3133;43.214;27.906;2023-08-21T11:21:07;100607.72;;;34.45;100.00
6200;BME280;3133;43.214;27.906;2023-08-21T11:23:36;100609.47;;;33.99;100.00
6200;BME280;3133;43.214;27.906;2023-08-21T11:26:04;100597.13;;;33.68;100.00
6200;BME280;3133;43.214;27.906;2023-08-21T11:28:32;100610.56;;;33.41;100.00
6200;BME280;3133;43.214;27.906;2023-08-21T11:30:59;100607.25;;;33.18;100.00
6200;BME280;3133;43.214;27.906;2023-08-21T11:33:27;100597.41;;;32.89;100.00
6200;BME280;3133;43.214;27.906;2023-08-21T11:35:55;100488.00;;;32.05;100.00
6200;BME280;3133;43.214;27.906;2023-08-21T11:38:25;100590.91;;;32.12;100.00
6200;BME280;3133;43.214;27.906;2023-08-21T11:40:54;100604.56;;;31.48;100.00
6200;BME280;3133;43.214;27.906;2023-08-21T11:43:21;100604.84;;;30.49;100.00
6200;BME280;3133;43.214;27.906;2023-08-21T11:45:48;100603.41;;;30.45;100.00
6200;BME280;3133;43.214;27.906;2023-08-21T11:48:19;100589.56;;;30.16;100.00
6200;BME280;3133;43.214;27.906;2023-08-21T11:50:48;100577.31;;;30.12;100.00
6200;BME280;3133;43.214;27.906;2023-08-21T11:53:31;100583.69;;;30.33;100.00
6200;BME280;3133;43.214;27.906;2023-08-21T11:55:58;100596.41;;;30.64;100.00
6200;BME280;3133;43.214;27.906;2023-08-21T11:58:26;100594.13;;;30.91;100.00
6200;BME280;3133;43.214;27.906;2023-08-21T12:00:53;100597.75;;;31.01;100.00
6200;BME280;3133;43.214;27.906;2023-08-21T12:03:20;100576.38;;;30.89;100.00
6200;BME280;3133;43.214;27.906;2023-08-21T12:05:47;100602.44;;;30.99;100.00
6200;BME280;3133;43.214;27.906;2023-08-21T12:08:16;100566.41;;;31.00;100.00
6200;BME280;3133;43.214;27.906;2023-08-21T12:10:42;100561.47;;;31.05;100.00
6200;BME280;3133;43.214;27.906;2023-08-21T12:13:12;100566.53;;;30.99;100.00
6200;BME280;3133;43.214;27.906;2023-08-21T12:15:38;100578.59;;;31.16;100.00
6200;BME280;3133;43.214;27.906;2023-08-21T12:18:06;100606.16;;;31.40;100.00
6200;BME280;3133;43.214;27.906;2023-08-21T12:20:32;100604.97;;;31.44;100.00
6200;BME280;3133;43.214;27.906;2023-08-21T12:22:59;100607.47;;;31.56;100.00
6200;BME280;3133;43.214;27.906;2023-08-21T12:25:27;100610.63;;;31.61;100.00
6200;BME280;3133;43.214;27.906;2023-08-21T12:27:55;100607.38;;;31.47;100.00
6200;BME280;3133;43.214;27.906;2023-08-21T12:30:22;100610.50;;;31.31;100.00
6200;BME280;3133;43.214;27.906;2023-08-21T12:32:49;100566.28;;;31.02;100.00
6200;BME280;3133;43.214;27.906;2023-08-21T12:35:16;100602.22;;;31.23;100.00
6200;BME280;3133;43.214;27.906;2023-08-21T12:37:43;100585.81;;;30.83;100.00
6200;BME280;3133;43.214;27.906;2023-08-21T12:40:10;100603.69;;;30.73;100.00
6200;BME280;3133;43.214;27.906;2023-08-21T12:42:38;100607.56;;;30.49;100.00
6200;BME280;3133;43.214;27.906;2023-08-21T12:45:06;100531.84;;;29.87;100.00
6200;BME280;3133;43.214;27.906;2023-08-21T12:47:33;100603.97;;;29.93;100.00
6200;BME280;3133;43.214;27.906;2023-08-21T12:50:00;100601.03;;;29.74;100.00
6200;BME280;3133;43.214;27.906;2023-08-21T12:52:28;100590.47;;;29.71;100.00
6200;BME280;3133;43.214;27.906;2023-08-21T12:54:55;100613.63;;;29.84;100.00
6200;BME280;3133;43.214;27.906;2023-08-21T12:57:22;100593.97;;;29.95;100.00